createdAt,value
2023-06-30T00:01:39.114Z,0.20
2023-06-30T00:04:09.708Z,0.20
2023-06-30T00:06:43.197Z,0.20
2023-06-30T00:09:11.662Z,0.20
2023-06-30T00:11:40.957Z,0.20
2023-06-30T00:14:09.290Z,0.27
2023-06-30T00:16:39.562Z,0.20
2023-06-30T00:19:09.267Z,0.20
2023-06-30T00:21:43.258Z,0.20
2023-06-30T00:24:11.866Z,0.20
2023-06-30T00:26:42.335Z,0.20
2023-06-30T00:29:10.403Z,0.20
2023-06-30T00:31:38.774Z,0.20
2023-06-30T00:34:07.132Z,0.20
2023-06-30T00:36:35.269Z,0.20
2023-06-30T00:39:05.705Z,0.20
2023-06-30T00:41:33.958Z,0.20
2023-06-30T00:44:02.934Z,0.20
2023-06-30T00:46:31.400Z,0.20
2023-06-30T00:49:00.407Z,0.20
2023-06-30T00:51:28.697Z,0.20
2023-06-30T00:53:57.037Z,0.20
2023-06-30T00:56:26.953Z,0.20
2023-06-30T00:58:55.280Z,0.20
2023-06-30T01:01:32.919Z,0.10
2023-06-30T01:04:08.575Z,0.20
2023-06-30T01:06:48.555Z,0.20
2023-06-30T01:09:22.167Z,0.20
2023-06-30T01:11:53.166Z,0.20
2023-06-30T01:14:23.820Z,0.20
2023-06-30T01:16:52.930Z,0.20
2023-06-30T01:19:29.415Z,0.20
2023-06-30T01:22:04.942Z,0.20
2023-06-30T01:24:36.835Z,0.20
2023-06-30T01:27:07.139Z,0.20
2023-06-30T01:29:36.403Z,0.10
2023-06-30T01:32:04.557Z,0.20
2023-06-30T01:34:32.677Z,0.20
2023-06-30T01:37:00.642Z,0.10
2023-06-30T01:39:28.603Z,0.20
2023-06-30T01:41:57.361Z,0.20
2023-06-30T01:44:28.092Z,0.20
2023-06-30T01:46:56.162Z,0.20
2023-06-30T01:49:26.541Z,0.20
2023-06-30T01:51:54.545Z,0.20
2023-06-30T01:54:24.048Z,0.20
2023-06-30T01:57:08.236Z,0.20
2023-06-30T01:59:37.491Z,0.20
2023-06-30T02:02:06.115Z,0.20
2023-06-30T02:04:34.118Z,0.20
2023-06-30T02:07:03.122Z,0.20
2023-06-30T02:09:43.273Z,0.20
2023-06-30T02:13:03.831Z,0.20
2023-06-30T02:15:34.261Z,0.20
2023-06-30T02:18:09.211Z,0.20
2023-06-30T02:20:37.083Z,0.20
2023-06-30T02:23:05.036Z,0.20
2023-06-30T02:25:33.014Z,0.20
2023-06-30T02:28:01.914Z,0.17
2023-06-30T02:30:35.319Z,0.20
2023-06-30T02:33:03.167Z,0.30
2023-06-30T02:35:31.101Z,0.20
2023-06-30T02:38:00.508Z,0.20
2023-06-30T02:40:28.421Z,0.20
2023-06-30T02:42:57.410Z,0.20
2023-06-30T02:45:25.969Z,0.20
2023-06-30T02:47:57.904Z,0.20
2023-06-30T02:50:31.903Z,0.20
2023-06-30T02:53:00.718Z,0.20
2023-06-30T02:55:29.012Z,0.20
2023-06-30T02:57:58.789Z,0.20
2023-06-30T03:00:27.409Z,0.20
2023-06-30T03:02:57.267Z,0.20
2023-06-30T03:05:25.882Z,0.20
2023-06-30T03:07:53.763Z,0.20
2023-06-30T03:10:21.680Z,0.13
2023-06-30T03:12:49.755Z,0.20
2023-06-30T03:15:18.074Z,0.20
2023-06-30T03:17:46.309Z,0.17
2023-06-30T03:20:17.037Z,0.20
2023-06-30T03:22:45.874Z,0.20
2023-06-30T03:25:13.746Z,0.30
2023-06-30T03:27:41.922Z,0.13
2023-06-30T03:30:11.158Z,0.10
2023-06-30T03:32:39.454Z,0.20
2023-06-30T03:35:08.484Z,0.20
2023-06-30T03:37:37.738Z,0.20
2023-06-30T03:40:07.273Z,0.20
2023-06-30T03:42:37.211Z,0.20
2023-06-30T03:45:05.944Z,0.20
2023-06-30T03:47:33.956Z,0.20
2023-06-30T03:50:02.303Z,0.20
2023-06-30T03:52:30.361Z,0.20
2023-06-30T03:54:59.782Z,0.20
2023-06-30T03:57:27.943Z,0.20
2023-06-30T03:59:55.952Z,0.20
2023-06-30T04:02:24.029Z,0.20
2023-06-30T04:04:52.133Z,0.20
2023-06-30T04:07:20.808Z,0.20
2023-06-30T04:09:49.934Z,0.20
2023-06-30T04:12:21.599Z,0.20
2023-06-30T04:14:50.176Z,0.20
2023-06-30T04:17:19.726Z,0.10
2023-06-30T04:19:47.754Z,0.20
2023-06-30T04:22:15.808Z,0.20
2023-06-30T04:24:44.114Z,0.10
2023-06-30T04:27:12.317Z,0.20
2023-06-30T04:29:41.767Z,0.20
2023-06-30T04:32:10.001Z,0.20
2023-06-30T04:34:39.069Z,0.20
2023-06-30T04:37:07.229Z,0.20
2023-06-30T04:39:36.757Z,0.20
2023-06-30T04:42:06.376Z,0.20
2023-06-30T04:44:34.406Z,0.20
2023-06-30T04:47:03.835Z,0.20
2023-06-30T04:49:32.791Z,0.20
2023-06-30T04:52:01.885Z,0.20
2023-06-30T04:54:30.732Z,0.20
2023-06-30T04:56:59.076Z,0.20
2023-06-30T04:59:28.574Z,0.20
2023-06-30T05:01:57.110Z,0.20
2023-06-30T05:04:26.780Z,0.20
2023-06-30T05:06:56.082Z,0.20
2023-06-30T05:09:24.899Z,0.20
2023-06-30T05:11:54.446Z,0.20
2023-06-30T05:14:23.394Z,0.20
2023-06-30T05:16:51.549Z,0.20
2023-06-30T05:19:19.608Z,0.20
2023-06-30T05:21:48.947Z,0.20
2023-06-30T05:24:19.702Z,0.20
2023-06-30T05:26:48.003Z,0.10
2023-06-30T05:29:16.056Z,0.20
2023-06-30T05:31:46.546Z,0.20
2023-06-30T05:34:16.910Z,0.20
2023-06-30T05:36:46.158Z,0.10
2023-06-30T05:39:15.757Z,0.20
2023-06-30T05:41:43.894Z,0.20
2023-06-30T05:44:12.094Z,0.20
2023-06-30T05:46:40.232Z,0.20
2023-06-30T05:49:08.325Z,0.20
2023-06-30T05:51:37.374Z,0.17
2023-06-30T05:54:05.784Z,0.20
2023-06-30T05:56:35.151Z,0.20
2023-06-30T05:59:03.439Z,0.20
2023-06-30T06:01:31.588Z,0.20
2023-06-30T06:04:03.216Z,0.20
2023-06-30T06:06:31.436Z,0.20
2023-06-30T06:08:59.744Z,0.20
2023-06-30T06:11:28.418Z,0.20
2023-06-30T06:14:01.309Z,0.10
2023-06-30T06:16:30.404Z,0.20
2023-06-30T06:18:58.569Z,0.20
2023-06-30T06:21:28.700Z,0.20
2023-06-30T06:23:57.987Z,0.20
2023-06-30T06:26:27.073Z,0.20
2023-06-30T06:28:56.101Z,0.20
2023-06-30T06:31:28.414Z,0.20
2023-06-30T06:33:56.747Z,0.20
2023-06-30T06:36:24.641Z,0.20
2023-06-30T06:38:52.747Z,0.20
2023-06-30T06:41:20.816Z,0.20
2023-06-30T06:43:48.967Z,0.20
2023-06-30T06:46:17.078Z,0.10
2023-06-30T06:48:46.429Z,0.20
2023-06-30T06:51:14.585Z,0.20
2023-06-30T06:53:43.970Z,0.20
2023-06-30T06:56:11.876Z,0.20
2023-06-30T06:58:40.122Z,0.20
2023-06-30T07:01:08.716Z,0.20
2023-06-30T07:03:36.828Z,0.10
2023-06-30T07:06:07.447Z,0.20
2023-06-30T07:08:36.393Z,0.20
2023-06-30T07:11:05.093Z,0.10
2023-06-30T07:13:33.205Z,0.20
2023-06-30T07:16:01.163Z,0.10
2023-06-30T07:18:30.932Z,0.10
2023-06-30T07:20:59.185Z,0.20
2023-06-30T07:23:28.629Z,0.10
2023-06-30T07:25:56.727Z,0.10
2023-06-30T07:28:27.913Z,0.10
2023-06-30T07:30:56.128Z,0.10
2023-06-30T07:33:24.018Z,0.10
2023-06-30T07:35:52.339Z,0.20
2023-06-30T07:38:20.352Z,0.20
2023-06-30T07:40:56.531Z,0.10
2023-06-30T07:43:27.740Z,0.10
2023-06-30T07:45:57.781Z,0.20
2023-06-30T07:48:29.910Z,0.10
2023-06-30T07:51:09.743Z,0.10
2023-06-30T07:53:43.134Z,0.13
2023-06-30T07:56:22.854Z,0.20
2023-06-30T07:58:52.961Z,0.17
2023-06-30T08:01:28.705Z,0.20
2023-06-30T08:04:04.570Z,0.20
2023-06-30T08:06:34.955Z,0.20
2023-06-30T08:09:04.137Z,0.10
2023-06-30T08:11:33.850Z,0.10
2023-06-30T08:14:03.305Z,0.10
2023-06-30T08:16:32.132Z,0.10
2023-06-30T08:19:00.388Z,0.10
2023-06-30T08:21:28.437Z,0.10
2023-06-30T08:23:57.708Z,0.10
2023-06-30T08:26:25.813Z,0.10
2023-06-30T08:29:01.771Z,0.00
2023-06-30T08:31:32.034Z,0.00
2023-06-30T08:34:06.713Z,0.10
2023-06-30T08:36:36.189Z,0.10
2023-06-30T08:39:04.206Z,0.00
2023-06-30T08:41:32.922Z,0.00
2023-06-30T08:44:03.395Z,0.00
2023-06-30T08:46:31.659Z,0.00
2023-06-30T08:48:59.717Z,0.10
2023-06-30T08:51:28.944Z,0.10
2023-06-30T08:53:59.291Z,0.10
2023-06-30T08:56:29.750Z,0.10
2023-06-30T08:59:00.230Z,0.10
2023-06-30T09:01:29.886Z,0.10
2023-06-30T09:03:59.704Z,0.10
2023-06-30T09:06:28.676Z,0.10
2023-06-30T09:09:01.725Z,0.10
2023-06-30T09:11:31.604Z,0.10
2023-06-30T09:14:03.114Z,0.03
2023-06-30T09:16:33.417Z,0.00
2023-06-30T09:19:02.644Z,0.00
2023-06-30T09:21:32.175Z,0.10
2023-06-30T09:24:02.566Z,0.00
2023-06-30T09:26:32.728Z,0.10
2023-06-30T09:29:01.076Z,0.00
2023-06-30T09:31:35.312Z,0.10
2023-06-30T09:34:11.693Z,0.10
2023-06-30T09:36:48.125Z,0.10
2023-06-30T09:39:16.133Z,0.00
2023-06-30T09:41:45.432Z,0.00
2023-06-30T09:44:14.385Z,0.00
2023-06-30T09:46:50.768Z,0.00
2023-06-30T09:49:30.090Z,0.10
2023-06-30T09:51:59.784Z,0.10
2023-06-30T09:54:43.891Z,0.07
2023-06-30T09:57:13.616Z,0.07
2023-06-30T09:59:42.842Z,0.00
2023-06-30T10:02:12.634Z,0.10
2023-06-30T10:04:44.496Z,0.00
2023-06-30T10:07:16.306Z,0.00
2023-06-30T10:09:47.273Z,0.00
2023-06-30T10:12:20.651Z,0.00
2023-06-30T10:14:52.482Z,0.00
2023-06-30T10:17:22.352Z,0.00
2023-06-30T10:19:50.675Z,0.10
2023-06-30T10:22:18.821Z,0.07
2023-06-30T10:24:51.025Z,0.00
2023-06-30T10:27:21.010Z,0.00
2023-06-30T10:29:49.354Z,0.07
2023-06-30T10:32:21.469Z,0.10
2023-06-30T10:34:53.329Z,0.00
2023-06-30T10:37:22.433Z,0.07
2023-06-30T10:39:51.027Z,0.00
2023-06-30T10:42:23.933Z,0.00
2023-06-30T10:44:53.666Z,0.00
2023-06-30T10:47:24.595Z,0.00
2023-06-30T10:49:57.871Z,0.00
2023-06-30T10:52:29.076Z,0.00
2023-06-30T10:55:00.009Z,0.10
2023-06-30T10:57:29.624Z,0.00
2023-06-30T11:00:09.426Z,0.00
2023-06-30T11:02:39.945Z,0.00
2023-06-30T11:05:26.771Z,0.10
2023-06-30T11:08:05.885Z,0.00
2023-06-30T11:10:38.303Z,0.00
2023-06-30T11:13:10.719Z,0.03
2023-06-30T11:15:41.852Z,0.10
2023-06-30T11:18:17.221Z,0.00
2023-06-30T11:21:03.877Z,0.00
2023-06-30T11:23:39.140Z,0.00
2023-06-30T11:26:15.210Z,0.10
2023-06-30T11:28:44.477Z,0.00
2023-06-30T11:31:16.883Z,0.00
2023-06-30T11:33:49.214Z,0.00
2023-06-30T11:36:20.553Z,0.00
2023-06-30T11:38:59.184Z,0.00
2023-06-30T11:41:34.865Z,0.00
2023-06-30T11:44:03.018Z,0.00
2023-06-30T11:46:37.625Z,0.00
2023-06-30T11:49:09.607Z,0.00
2023-06-30T11:51:39.196Z,0.00
2023-06-30T11:54:09.135Z,0.00
2023-06-30T11:56:41.502Z,0.00
2023-06-30T11:59:09.577Z,0.00
2023-06-30T12:01:37.802Z,0.00
2023-06-30T12:04:35.199Z,0.00
2023-06-30T12:07:17.338Z,0.00
2023-06-30T12:10:01.668Z,0.00
2023-06-30T12:12:33.389Z,0.00
2023-06-30T12:15:05.263Z,0.00
2023-06-30T12:17:37.859Z,0.00
2023-06-30T12:20:08.460Z,0.00
2023-06-30T12:22:43.516Z,0.00
2023-06-30T12:25:12.698Z,0.00
2023-06-30T12:27:46.399Z,0.00
2023-06-30T12:30:18.126Z,0.00
2023-06-30T12:32:47.412Z,0.00
2023-06-30T12:35:15.480Z,0.00
2023-06-30T12:37:46.114Z,0.00
2023-06-30T12:40:15.050Z,0.00
2023-06-30T12:42:49.409Z,0.00
2023-06-30T12:45:17.666Z,0.00
2023-06-30T12:47:45.641Z,0.00
2023-06-30T12:50:13.713Z,0.03
2023-06-30T12:52:41.737Z,0.00
2023-06-30T12:55:11.793Z,0.00
2023-06-30T12:57:41.523Z,0.00
2023-06-30T13:00:13.341Z,0.00
2023-06-30T13:02:43.110Z,0.00
2023-06-30T13:05:11.290Z,0.03
2023-06-30T13:07:40.517Z,0.00
2023-06-30T13:10:11.127Z,0.00
2023-06-30T13:12:41.662Z,0.00
2023-06-30T13:15:11.202Z,0.00
2023-06-30T13:17:39.464Z,0.00
2023-06-30T13:20:09.163Z,0.00
2023-06-30T13:22:42.770Z,0.00
2023-06-30T13:25:18.107Z,0.00
2023-06-30T13:27:46.589Z,0.00
2023-06-30T13:30:14.732Z,0.10
2023-06-30T13:32:43.018Z,0.00
2023-06-30T13:35:11.084Z,0.00
2023-06-30T13:37:39.121Z,0.00
2023-06-30T13:40:09.545Z,0.10
2023-06-30T13:42:39.946Z,0.03
2023-06-30T13:45:10.989Z,0.10
2023-06-30T13:47:48.558Z,0.10
2023-06-30T13:50:17.554Z,0.00
2023-06-30T13:52:45.831Z,0.03
2023-06-30T13:55:17.544Z,0.00
2023-06-30T13:58:04.296Z,0.00
2023-06-30T14:01:12.996Z,0.00
2023-06-30T14:03:43.694Z,0.00
2023-06-30T14:06:23.785Z,0.00
2023-06-30T14:08:55.463Z,0.00
2023-06-30T14:11:23.564Z,0.00
2023-06-30T14:13:52.985Z,0.00
2023-06-30T14:16:21.187Z,0.00
2023-06-30T14:18:49.218Z,0.07
2023-06-30T14:21:19.485Z,0.00
2023-06-30T14:23:48.954Z,0.10
2023-06-30T14:26:17.755Z,0.10
2023-06-30T14:28:47.149Z,0.00
2023-06-30T14:31:24.288Z,0.10
2023-06-30T14:33:56.012Z,0.00
2023-06-30T14:36:24.989Z,0.07
2023-06-30T14:38:53.043Z,0.00
2023-06-30T14:41:21.449Z,0.10
2023-06-30T14:43:49.575Z,0.10
2023-06-30T14:46:18.875Z,0.00
2023-06-30T14:48:46.767Z,0.00
2023-06-30T14:51:14.872Z,0.00
2023-06-30T14:53:45.135Z,0.00
2023-06-30T14:56:13.007Z,0.00
2023-06-30T14:58:41.564Z,0.10
2023-06-30T15:01:09.664Z,0.10
2023-06-30T15:03:39.553Z,0.00
2023-06-30T15:06:07.536Z,0.00
2023-06-30T15:08:35.956Z,0.00
2023-06-30T15:11:03.783Z,0.00
2023-06-30T15:13:33.411Z,0.00
2023-06-30T15:16:04.034Z,0.03
2023-06-30T15:18:32.052Z,0.10
2023-06-30T15:21:02.594Z,0.10
2023-06-30T15:23:30.686Z,0.07
2023-06-30T15:26:06.997Z,0.10
2023-06-30T15:28:35.926Z,0.00
2023-06-30T15:31:04.117Z,0.10
2023-06-30T15:33:35.254Z,0.10
2023-06-30T15:36:10.625Z,0.00
2023-06-30T15:38:38.819Z,0.10
2023-06-30T15:41:21.820Z,0.10
2023-06-30T15:43:50.412Z,0.10
2023-06-30T15:46:18.886Z,0.10
2023-06-30T15:48:49.866Z,0.00
2023-06-30T15:51:21.211Z,0.00
2023-06-30T15:53:49.327Z,0.00
2023-06-30T15:56:17.620Z,0.00
2023-06-30T15:58:45.588Z,0.00
2023-06-30T16:01:13.549Z,0.00
2023-06-30T16:03:42.737Z,0.00
2023-06-30T16:06:11.701Z,0.00
2023-06-30T16:08:41.153Z,0.00
2023-06-30T16:11:09.037Z,0.00
2023-06-30T16:13:37.664Z,0.00
2023-06-30T16:16:07.038Z,0.00
2023-06-30T16:18:37.584Z,0.00
2023-06-30T16:21:05.612Z,0.10
2023-06-30T16:23:33.702Z,0.00
2023-06-30T16:26:03.341Z,0.10
2023-06-30T16:28:31.262Z,0.10
2023-06-30T16:30:59.120Z,0.03
2023-06-30T16:33:27.804Z,0.10
2023-06-30T16:35:55.929Z,0.10
2023-06-30T16:38:23.902Z,0.10
2023-06-30T16:40:52.846Z,0.10
2023-06-30T16:43:22.281Z,0.10
2023-06-30T16:45:50.412Z,0.10
2023-06-30T16:48:18.506Z,0.00
2023-06-30T16:50:46.668Z,0.00
2023-06-30T16:53:14.756Z,0.00
2023-06-30T16:55:45.284Z,0.10
2023-06-30T16:58:16.156Z,0.10
2023-06-30T17:00:45.792Z,0.10
2023-06-30T17:03:13.994Z,0.03
2023-06-30T17:05:51.528Z,0.10
2023-06-30T17:08:20.352Z,0.10
2023-06-30T17:10:48.240Z,0.10
2023-06-30T17:13:25.458Z,0.10
2023-06-30T17:15:55.036Z,0.10
2023-06-30T17:18:22.994Z,0.10
2023-06-30T17:20:51.016Z,0.10
2023-06-30T17:23:19.139Z,0.10
2023-06-30T17:25:48.466Z,0.10
2023-06-30T17:28:18.593Z,0.10
2023-06-30T17:30:47.784Z,0.20
2023-06-30T17:33:18.813Z,0.10
2023-06-30T17:35:47.071Z,0.10
2023-06-30T17:38:16.658Z,0.10
2023-06-30T17:40:45.802Z,0.10
2023-06-30T17:43:13.856Z,0.10
2023-06-30T17:45:43.032Z,0.10
2023-06-30T17:48:11.567Z,0.10
2023-06-30T17:50:40.976Z,0.10
2023-06-30T17:53:13.772Z,0.10
2023-06-30T17:55:44.820Z,0.10
2023-06-30T17:58:13.006Z,0.20
2023-06-30T18:00:41.093Z,0.10
2023-06-30T18:03:09.054Z,0.20
2023-06-30T18:05:37.242Z,0.10
2023-06-30T18:08:06.878Z,0.10
2023-06-30T18:10:34.972Z,0.10
2023-06-30T18:13:03.294Z,0.10
2023-06-30T18:15:32.011Z,0.17
2023-06-30T18:18:00.314Z,0.17
2023-06-30T18:20:28.403Z,0.10
2023-06-30T18:22:57.396Z,0.20
2023-06-30T18:25:27.699Z,0.10
2023-06-30T18:27:55.635Z,0.10
2023-06-30T18:30:25.225Z,0.10
2023-06-30T18:32:55.095Z,0.20
2023-06-30T18:35:23.061Z,0.10
2023-06-30T18:37:50.977Z,0.20
2023-06-30T18:40:28.157Z,0.13
2023-06-30T18:42:56.104Z,0.10
2023-06-30T18:45:24.017Z,0.10
2023-06-30T18:47:52.098Z,0.20
2023-06-30T18:50:20.102Z,0.20
2023-06-30T18:52:48.002Z,0.10
2023-06-30T18:55:16.063Z,0.10
2023-06-30T18:57:45.529Z,0.20
2023-06-30T19:00:15.566Z,0.20
2023-06-30T19:02:43.804Z,0.20
2023-06-30T19:05:12.645Z,0.10
2023-06-30T19:07:40.734Z,0.20
2023-06-30T19:10:10.483Z,0.20
2023-06-30T19:12:38.828Z,0.20
2023-06-30T19:15:09.607Z,0.20
2023-06-30T19:17:37.517Z,0.10
2023-06-30T19:20:06.288Z,0.20
2023-06-30T19:22:43.244Z,0.20
2023-06-30T19:25:11.144Z,0.20
2023-06-30T19:27:39.205Z,0.20
2023-06-30T19:30:10.019Z,0.10
2023-06-30T19:32:38.026Z,0.20
2023-06-30T19:35:06.707Z,0.20
2023-06-30T19:37:34.729Z,0.20
2023-06-30T19:40:02.580Z,0.20
2023-06-30T19:42:30.601Z,0.20
2023-06-30T19:44:59.629Z,0.10
2023-06-30T19:47:29.047Z,0.10
2023-06-30T19:49:57.001Z,0.20
2023-06-30T19:52:25.094Z,0.20
2023-06-30T19:54:53.081Z,0.10
2023-06-30T19:57:21.153Z,0.20
2023-06-30T19:59:49.099Z,0.10
2023-06-30T20:02:24.599Z,0.10
2023-06-30T20:04:56.401Z,0.20
2023-06-30T20:07:24.571Z,0.20
2023-06-30T20:09:52.520Z,0.17
2023-06-30T20:12:20.520Z,0.13
2023-06-30T20:14:48.648Z,0.20
2023-06-30T20:17:17.541Z,0.20
2023-06-30T20:19:45.987Z,0.20
2023-06-30T20:22:15.559Z,0.20
2023-06-30T20:24:43.519Z,0.20
2023-06-30T20:27:11.538Z,0.20
2023-06-30T20:29:39.791Z,0.10
2023-06-30T20:32:08.866Z,0.20
2023-06-30T20:34:36.829Z,0.20
2023-06-30T20:37:04.988Z,0.20
2023-06-30T20:39:34.372Z,0.20
2023-06-30T20:42:02.393Z,0.20
2023-06-30T20:44:30.281Z,0.20
2023-06-30T20:46:58.928Z,0.20
2023-06-30T20:49:27.117Z,0.20
2023-06-30T20:51:56.125Z,0.20
2023-06-30T20:54:25.623Z,0.10
2023-06-30T20:56:56.179Z,0.10
2023-06-30T20:59:24.030Z,0.10
2023-06-30T21:01:51.937Z,0.20
2023-06-30T21:04:20.004Z,0.20
2023-06-30T21:06:47.974Z,0.20
2023-06-30T21:09:15.987Z,0.20
2023-06-30T21:11:43.762Z,0.20
2023-06-30T21:14:13.014Z,0.20
2023-06-30T21:16:42.492Z,0.10
2023-06-30T21:19:11.577Z,0.20
2023-06-30T21:21:45.027Z,0.20
2023-06-30T21:24:14.961Z,0.20
2023-06-30T21:26:44.964Z,0.10
2023-06-30T21:29:14.706Z,0.20
2023-06-30T21:31:42.711Z,0.20
2023-06-30T21:34:10.723Z,0.20
2023-06-30T21:36:39.840Z,0.17
2023-06-30T21:39:07.974Z,0.20
2023-06-30T21:41:39.496Z,0.20
2023-06-30T21:44:16.664Z,0.20
2023-06-30T21:46:46.553Z,0.20
2023-06-30T21:49:14.637Z,0.10
2023-06-30T21:51:43.615Z,0.20
2023-06-30T21:54:11.713Z,0.27
2023-06-30T21:56:40.194Z,0.20
2023-06-30T21:59:07.998Z,0.20
2023-06-30T22:01:41.841Z,0.20
2023-06-30T22:04:11.964Z,0.20
2023-06-30T22:06:40.202Z,0.20
2023-06-30T22:09:16.067Z,0.20
2023-06-30T22:11:45.229Z,0.20
2023-06-30T22:14:13.726Z,0.20
2023-06-30T22:16:42.070Z,0.20
2023-06-30T22:19:12.191Z,0.20
2023-06-30T22:21:40.120Z,0.10
2023-06-30T22:24:09.115Z,0.20
2023-06-30T22:26:38.110Z,0.20
2023-06-30T22:29:06.110Z,0.20
2023-06-30T22:31:34.183Z,0.20
2023-06-30T22:34:03.071Z,0.20
2023-06-30T22:36:32.499Z,0.20
2023-06-30T22:39:00.536Z,0.10
2023-06-30T22:41:28.400Z,0.20
2023-06-30T22:43:56.516Z,0.20
2023-06-30T22:46:24.636Z,0.20
2023-06-30T22:48:52.640Z,0.20
2023-06-30T22:51:23.782Z,0.20
2023-06-30T22:53:52.957Z,0.20
2023-06-30T22:56:20.949Z,0.20
2023-06-30T22:58:51.407Z,0.20
2023-06-30T23:01:19.383Z,0.20
2023-06-30T23:03:47.617Z,0.20
2023-06-30T23:06:15.662Z,0.20
2023-06-30T23:08:43.511Z,0.20
2023-06-30T23:11:12.789Z,0.10
2023-06-30T23:13:40.645Z,0.20
2023-06-30T23:16:10.286Z,0.20
2023-06-30T23:18:39.235Z,0.20
2023-06-30T23:21:10.468Z,0.20
2023-06-30T23:23:41.528Z,0.20
2023-06-30T23:26:11.228Z,0.20
2023-06-30T23:28:44.408Z,0.10
2023-06-30T23:31:13.058Z,0.17
2023-06-30T23:33:44.112Z,0.20
2023-06-30T23:36:12.093Z,0.20
2023-06-30T23:38:40.395Z,0.20
2023-06-30T23:41:08.479Z,0.20
2023-06-30T23:43:36.344Z,0.20
2023-06-30T23:46:05.984Z,0.20
2023-06-30T23:48:33.943Z,0.20
2023-06-30T23:51:01.797Z,0.20
2023-06-30T23:53:29.692Z,0.20
2023-06-30T23:55:57.621Z,0.20
2023-06-30T23:58:25.713Z,0.20
